sensor_id;sensor_type;location;lat;lon;timestamp;pressure;altitude;pressure_sealevel;temperature;humidity
19112;BME280;9688;51.906;8.376;2023-07-02T00:02:05;99769.84;;;18.63;100.00
19112;BME280;9688;51.906;8.376;2023-07-02T00:04:51;99771.94;;;18.60;100.00
19112;BME280;9688;51.906;8.376;2023-07-02T00:07:37;99773.06;;;18.57;100.00
19112;BME280;9688;51.906;8.376;2023-07-02T00:10:23;99759.53;;;18.59;100.00
19112;BME280;9688;51.906;8.376;2023-07-02T00:13:12;99750.75;;;18.57;100.00
19112;BME280;9688;51.906;8.376;2023-07-02T00:15:59;99756.53;;;18.52;100.00
19112;BME280;9688;51.906;8.376;2023-07-02T00:18:45;99750.47;;;18.50;100.00
19112;BME280;9688;51.906;8.376;2023-07-02T00:21:36;99761.31;;;18.48;100.00
19112;BME280;9688;51.906;8.376;2023-07-02T00:24:24;99755.97;;;18.48;100.00
19112;BME280;9688;51.906;8.376;2023-07-02T00:27:10;99764.00;;;18.48;100.00
19112;BME280;9688;51.906;8.376;2023-07-02T00:29:56;99764.09;;;18.47;100.00
19112;BME280;9688;51.906;8.376;2023-07-02T00:32:43;99750.84;;;18.45;100.00
19112;BME280;9688;51.906;8.376;2023-07-02T00:35:29;99758.88;;;18.45;100.00
19112;BME280;9688;51.906;8.376;2023-07-02T00:38:15;99750.00;;;18.45;100.00
19112;BME280;9688;51.906;8.376;2023-07-02T00:41:01;99759.84;;;18.44;100.00
19112;BME280;9688;51.906;8.376;2023-07-02T00:43:47;99757.19;;;18.44;100.00
19112;BME280;9688;51.906;8.376;2023-07-02T00:46:34;99755.63;;;18.42;100.00
19112;BME280;9688;51.906;8.376;2023-07-02T00:49:22;99755.75;;;18.40;100.00
19112;BME280;9688;51.906;8.376;2023-07-02T00:52:08;99751.25;;;18.41;100.00
19112;BME280;9688;51.906;8.376;2023-07-02T00:54:54;99767.16;;;18.42;100.00
19112;BME280;9688;51.906;8.376;2023-07-02T00:57:39;99741.66;;;18.38;100.00
19112;BME280;9688;51.906;8.376;2023-07-02T01:00:30;99737.41;;;18.36;100.00
19112;BME280;9688;51.906;8.376;2023-07-02T01:03:17;99730.59;;;18.32;100.00
19112;BME280;9688;51.906;8.376;2023-07-02T01:06:05;99724.94;;;18.25;100.00
19112;BME280;9688;51.906;8.376;2023-07-02T01:08:53;99736.75;;;18.22;100.00
19112;BME280;9688;51.906;8.376;2023-07-02T01:11:41;99743.09;;;18.21;100.00
19112;BME280;9688;51.906;8.376;2023-07-02T01:14:32;99742.34;;;18.19;100.00
19112;BME280;9688;51.906;8.376;2023-07-02T01:17:19;99738.13;;;18.17;100.00
19112;BME280;9688;51.906;8.376;2023-07-02T01:20:08;99735.69;;;18.14;100.00
19112;BME280;9688;51.906;8.376;2023-07-02T01:22:54;99727.78;;;18.12;100.00
19112;BME280;9688;51.906;8.376;2023-07-02T01:25:43;99719.91;;;18.11;100.00
19112;BME280;9688;51.906;8.376;2023-07-02T01:28:35;99721.88;;;18.09;100.00
19112;BME280;9688;51.906;8.376;2023-07-02T01:31:22;99739.16;;;18.04;100.00
19112;BME280;9688;51.906;8.376;2023-07-02T01:34:12;99735.38;;;18.07;100.00
19112;BME280;9688;51.906;8.376;2023-07-02T01:36:59;99737.78;;;18.10;100.00
19112;BME280;9688;51.906;8.376;2023-07-02T01:39:45;99735.97;;;18.11;100.00
19112;BME280;9688;51.906;8.376;2023-07-02T01:42:31;99727.78;;;18.12;100.00
19112;BME280;9688;51.906;8.376;2023-07-02T01:45:17;99729.78;;;18.10;100.00
19112;BME280;9688;51.906;8.376;2023-07-02T01:48:03;99722.69;;;18.09;100.00
19112;BME280;9688;51.906;8.376;2023-07-02T01:50:49;99713.09;;;18.06;100.00
19112;BME280;9688;51.906;8.376;2023-07-02T01:53:36;99710.69;;;18.03;100.00
19112;BME280;9688;51.906;8.376;2023-07-02T01:56:22;99709.13;;;18.01;100.00
19112;BME280;9688;51.906;8.376;2023-07-02T01:59:07;99726.41;;;17.97;100.00
19112;BME280;9688;51.906;8.376;2023-07-02T02:01:53;99723.38;;;17.90;100.00
19112;BME280;9688;51.906;8.376;2023-07-02T02:04:39;99736.75;;;17.90;100.00
19112;BME280;9688;51.906;8.376;2023-07-02T02:07:26;99728.63;;;17.92;100.00
19112;BME280;9688;51.906;8.376;2023-07-02T02:10:13;99732.88;;;17.94;100.00
19112;BME280;9688;51.906;8.376;2023-07-02T02:12:59;99742.59;;;17.95;100.00
19112;BME280;9688;51.906;8.376;2023-07-02T02:15:44;99744.03;;;17.99;100.00
19112;BME280;9688;51.906;8.376;2023-07-02T02:18:30;99751.22;;;17.99;100.00
19112;BME280;9688;51.906;8.376;2023-07-02T02:21:15;99746.72;;;17.99;100.00
19112;BME280;9688;51.906;8.376;2023-07-02T02:24:01;99751.81;;;18.02;100.00
19112;BME280;9688;51.906;8.376;2023-07-02T02:26:48;99744.50;;;18.04;100.00
19112;BME280;9688;51.906;8.376;2023-07-02T02:29:34;99748.75;;;18.07;100.00
19112;BME280;9688;51.906;8.376;2023-07-02T02:32:20;99748.59;;;18.09;100.00
19112;BME280;9688;51.906;8.376;2023-07-02T02:35:09;99750.56;;;18.06;100.00
19112;BME280;9688;51.906;8.376;2023-07-02T02:37:55;99752.53;;;18.04;100.00
19112;BME280;9688;51.906;8.376;2023-07-02T02:40:40;99750.13;;;18.01;100.00
19112;BME280;9688;51.906;8.376;2023-07-02T02:43:28;99744.78;;;18.01;100.00
19112;BME280;9688;51.906;8.376;2023-07-02T02:46:19;99751.06;;;18.00;100.00
19112;BME280;9688;51.906;8.376;2023-07-02T02:49:05;99751.91;;;18.01;100.00
19112;BME280;9688;51.906;8.376;2023-07-02T02:51:51;99746.44;;;18.02;100.00
19112;BME280;9688;51.906;8.376;2023-07-02T02:54:37;99754.47;;;18.02;100.00
19112;BME280;9688;51.906;8.376;2023-07-02T02:57:23;99749.13;;;18.02;100.00
19112;BME280;9688;51.906;8.376;2023-07-02T03:00:12;99740.13;;;18.03;100.00
19112;BME280;9688;51.906;8.376;2023-07-02T03:02:58;99736.34;;;18.06;100.00
19112;BME280;9688;51.906;8.376;2023-07-02T03:05:44;99737.91;;;18.09;100.00
19112;BME280;9688;51.906;8.376;2023-07-02T03:08:32;99743.84;;;18.12;100.00
19112;BME280;9688;51.906;8.376;2023-07-02T03:11:17;99747.38;;;18.13;100.00
19112;BME280;9688;51.906;8.376;2023-07-02T03:14:03;99751.88;;;18.12;100.00
19112;BME280;9688;51.906;8.376;2023-07-02T03:16:50;99757.94;;;18.14;100.00
19112;BME280;9688;51.906;8.376;2023-07-02T03:19:35;99756.00;;;18.16;100.00
19112;BME280;9688;51.906;8.376;2023-07-02T03:22:21;99746.72;;;18.20;100.00
19112;BME280;9688;51.906;8.376;2023-07-02T03:25:07;99745.63;;;18.23;100.00
19112;BME280;9688;51.906;8.376;2023-07-02T03:27:52;99747.34;;;18.24;100.00
19112;BME280;9688;51.906;8.376;2023-07-02T03:30:38;99749.28;;;18.22;100.00
19112;BME280;9688;51.906;8.376;2023-07-02T03:33:25;99747.59;;;18.21;100.00
19112;BME280;9688;51.906;8.376;2023-07-02T03:36:11;99756.19;;;18.24;100.00
19112;BME280;9688;51.906;8.376;2023-07-02T03:38:56;99750.69;;;18.26;100.00
19112;BME280;9688;51.906;8.376;2023-07-02T03:41:42;99763.97;;;18.27;100.00
19112;BME280;9688;51.906;8.376;2023-07-02T03:44:28;99754.38;;;18.25;100.00
19112;BME280;9688;51.906;8.376;2023-07-02T03:47:14;99753.25;;;18.27;100.00
19112;BME280;9688;51.906;8.376;2023-07-02T03:50:09;99754.38;;;18.25;100.00
19112;BME280;9688;51.906;8.376;2023-07-02T03:52:55;99756.78;;;18.28;100.00
19112;BME280;9688;51.906;8.376;2023-07-02T03:55:41;99765.66;;;18.28;100.00
19112;BME280;9688;51.906;8.376;2023-07-02T03:58:27;99759.47;;;18.28;100.00
19112;BME280;9688;51.906;8.376;2023-07-02T04:01:13;99760.81;;;18.22;100.00
19112;BME280;9688;51.906;8.376;2023-07-02T04:03:59;99772.06;;;18.16;100.00
19112;BME280;9688;51.906;8.376;2023-07-02T04:06:46;99772.31;;;18.13;100.00
19112;BME280;9688;51.906;8.376;2023-07-02T04:09:34;99767.91;;;18.12;100.00
19112;BME280;9688;51.906;8.376;2023-07-02T04:12:19;99795.53;;;18.13;100.00
19112;BME280;9688;51.906;8.376;2023-07-02T04:15:07;99808.69;;;18.04;100.00
19112;BME280;9688;51.906;8.376;2023-07-02T04:17:53;99818.94;;;17.77;100.00
19112;BME280;9688;51.906;8.376;2023-07-02T04:20:41;99807.56;;;17.52;100.00
19112;BME280;9688;51.906;8.376;2023-07-02T04:23:28;99804.28;;;17.37;100.00
19112;BME280;9688;51.906;8.376;2023-07-02T04:26:14;99826.66;;;17.25;100.00
19112;BME280;9688;51.906;8.376;2023-07-02T04:29:01;99828.34;;;17.15;100.00
19112;BME280;9688;51.906;8.376;2023-07-02T04:31:47;99825.91;;;17.12;100.00
19112;BME280;9688;51.906;8.376;2023-07-02T04:34:33;99829.56;;;17.11;100.00
19112;BME280;9688;51.906;8.376;2023-07-02T04:37:20;99840.97;;;17.13;100.00
19112;BME280;9688;51.906;8.376;2023-07-02T04:40:09;99835.50;;;17.14;100.00
19112;BME280;9688;51.906;8.376;2023-07-02T04:42:54;99837.44;;;17.12;100.00
19112;BME280;9688;51.906;8.376;2023-07-02T04:45:43;99833.81;;;17.13;100.00
19112;BME280;9688;51.906;8.376;2023-07-02T04:48:29;99846.94;;;17.16;100.00
19112;BME280;9688;51.906;8.376;2023-07-02T04:51:15;99854.69;;;17.20;100.00
19112;BME280;9688;51.906;8.376;2023-07-02T04:54:01;99854.34;;;17.24;100.00
19112;BME280;9688;51.906;8.376;2023-07-02T04:56:48;99848.75;;;17.27;100.00
19112;BME280;9688;51.906;8.376;2023-07-02T04:59:34;99850.19;;;17.31;100.00
19112;BME280;9688;51.906;8.376;2023-07-02T05:02:21;99857.63;;;17.39;100.00
19112;BME280;9688;51.906;8.376;2023-07-02T05:05:07;99858.69;;;17.48;100.00
19112;BME280;9688;51.906;8.376;2023-07-02T05:07:54;99865.13;;;17.56;100.00
19112;BME280;9688;51.906;8.376;2023-07-02T05:10:40;99873.38;;;17.65;100.00
19112;BME280;9688;51.906;8.376;2023-07-02T05:13:27;99861.50;;;17.69;100.00
19112;BME280;9688;51.906;8.376;2023-07-02T05:16:16;99866.22;;;17.76;100.00
19112;BME280;9688;51.906;8.376;2023-07-02T05:19:02;99876.22;;;17.86;100.00
19112;BME280;9688;51.906;8.376;2023-07-02T05:21:47;99877.53;;;17.91;100.00
19112;BME280;9688;51.906;8.376;2023-07-02T05:24:33;99870.59;;;17.89;100.00
19112;BME280;9688;51.906;8.376;2023-07-02T05:27:19;99873.03;;;17.92;100.00
19112;BME280;9688;51.906;8.376;2023-07-02T05:30:07;99876.03;;;17.98;100.00
19112;BME280;9688;51.906;8.376;2023-07-02T05:32:53;99881.63;;;18.06;100.00
19112;BME280;9688;51.906;8.376;2023-07-02T05:35:39;99887.44;;;18.12;100.00
19112;BME280;9688;51.906;8.376;2023-07-02T05:38:25;99885.59;;;18.23;100.00
19112;BME280;9688;51.906;8.376;2023-07-02T05:41:10;99890.47;;;18.30;100.00
19112;BME280;9688;51.906;8.376;2023-07-02T05:43:56;99892.16;;;18.31;100.00
19112;BME280;9688;51.906;8.376;2023-07-02T05:46:44;99883.75;;;18.35;100.00
19112;BME280;9688;51.906;8.376;2023-07-02T05:49:31;99890.31;;;18.31;100.00
19112;BME280;9688;51.906;8.376;2023-07-02T05:52:19;99895.66;;;18.31;99.87
19112;BME280;9688;51.906;8.376;2023-07-02T05:55:08;99901.72;;;18.44;99.27
19112;BME280;9688;51.906;8.376;2023-07-02T05:57:55;99902.97;;;18.61;98.73
19112;BME280;9688;51.906;8.376;2023-07-02T06:00:46;99910.56;;;18.88;98.10
19112;BME280;9688;51.906;8.376;2023-07-02T06:03:35;99915.53;;;18.93;97.12
19112;BME280;9688;51.906;8.376;2023-07-02T06:06:22;99918.84;;;18.85;96.75
19112;BME280;9688;51.906;8.376;2023-07-02T06:09:09;99918.50;;;18.79;96.26
19112;BME280;9688;51.906;8.376;2023-07-02T06:11:54;99916.81;;;18.78;95.76
19112;BME280;9688;51.906;8.376;2023-07-02T06:14:40;99928.75;;;18.73;95.25
19112;BME280;9688;51.906;8.376;2023-07-02T06:17:26;99926.19;;;18.72;94.33
19112;BME280;9688;51.906;8.376;2023-07-02T06:20:13;99925.84;;;18.77;93.39
19112;BME280;9688;51.906;8.376;2023-07-02T06:23:00;99924.06;;;18.87;92.33
19112;BME280;9688;51.906;8.376;2023-07-02T06:25:45;99924.53;;;18.92;91.24
19112;BME280;9688;51.906;8.376;2023-07-02T06:28:31;99925.84;;;18.98;90.05
19112;BME280;9688;51.906;8.376;2023-07-02T06:31:17;99931.13;;;19.09;88.99
19112;BME280;9688;51.906;8.376;2023-07-02T06:34:02;99934.28;;;19.14;87.98
19112;BME280;9688;51.906;8.376;2023-07-02T06:36:50;99921.06;;;19.22;86.66
19112;BME280;9688;51.906;8.376;2023-07-02T06:39:35;99926.50;;;19.32;85.25
19112;BME280;9688;51.906;8.376;2023-07-02T06:42:21;99932.19;;;19.38;84.15
19112;BME280;9688;51.906;8.376;2023-07-02T06:45:09;99938.97;;;19.43;83.15
19112;BME280;9688;51.906;8.376;2023-07-02T06:47:55;99934.97;;;19.37;82.14
19112;BME280;9688;51.906;8.376;2023-07-02T06:50:43;99941.31;;;19.36;81.60
19112;BME280;9688;51.906;8.376;2023-07-02T06:53:31;99943.75;;;19.39;81.16
19112;BME280;9688;51.906;8.376;2023-07-02T06:56:16;99936.63;;;19.49;80.54
19112;BME280;9688;51.906;8.376;2023-07-02T06:59:02;99954.00;;;19.55;80.64
19112;BME280;9688;51.906;8.376;2023-07-02T07:01:49;99947.97;;;19.63;79.72
19112;BME280;9688;51.906;8.376;2023-07-02T07:04:35;99958.47;;;19.66;78.75
19112;BME280;9688;51.906;8.376;2023-07-02T07:07:22;99955.56;;;19.57;78.01
19112;BME280;9688;51.906;8.376;2023-07-02T07:10:09;99955.94;;;19.53;76.98
19112;BME280;9688;51.906;8.376;2023-07-02T07:12:55;99953.50;;;19.40;76.66
19112;BME280;9688;51.906;8.376;2023-07-02T07:15:41;99963.88;;;19.33;76.44
19112;BME280;9688;51.906;8.376;2023-07-02T07:18:27;99958.25;;;19.36;75.86
19112;BME280;9688;51.906;8.376;2023-07-02T07:21:13;99944.94;;;19.46;75.84
19112;BME280;9688;51.906;8.376;2023-07-02T07:24:00;99959.09;;;19.58;75.86
19112;BME280;9688;51.906;8.376;2023-07-02T07:26:48;99962.84;;;19.67;75.48
19112;BME280;9688;51.906;8.376;2023-07-02T07:29:35;99972.31;;;19.71;75.36
19112;BME280;9688;51.906;8.376;2023-07-02T07:32:20;99966.41;;;19.77;75.35
19112;BME280;9688;51.906;8.376;2023-07-02T07:35:07;99969.56;;;19.92;74.90
19112;BME280;9688;51.906;8.376;2023-07-02T07:37:53;99976.56;;;20.04;74.65
19112;BME280;9688;51.906;8.376;2023-07-02T07:40:39;99963.03;;;20.15;73.88
19112;BME280;9688;51.906;8.376;2023-07-02T07:43:26;99969.66;;;20.11;73.65
19112;BME280;9688;51.906;8.376;2023-07-02T07:46:14;99967.13;;;20.10;72.94
19112;BME280;9688;51.906;8.376;2023-07-02T07:48:59;99972.88;;;20.05;72.86
19112;BME280;9688;51.906;8.376;2023-07-02T07:51:45;99979.41;;;20.12;72.57
19112;BME280;9688;51.906;8.376;2023-07-02T07:54:31;99982.13;;;20.22;71.70
19112;BME280;9688;51.906;8.376;2023-07-02T07:57:22;99973.41;;;20.39;70.16
19112;BME280;9688;51.906;8.376;2023-07-02T08:00:16;99986.31;;;20.55;68.66
19112;BME280;9688;51.906;8.376;2023-07-02T08:03:02;99976.47;;;20.65;67.87
19112;BME280;9688;51.906;8.376;2023-07-02T08:05:47;99967.56;;;20.65;67.02
19112;BME280;9688;51.906;8.376;2023-07-02T08:08:35;99983.94;;;20.62;66.51
19112;BME280;9688;51.906;8.376;2023-07-02T08:11:22;99990.69;;;20.56;65.78
19112;BME280;9688;51.906;8.376;2023-07-02T08:14:08;99991.09;;;20.52;65.49
19112;BME280;9688;51.906;8.376;2023-07-02T08:16:55;99990.84;;;20.55;64.93
19112;BME280;9688;51.906;8.376;2023-07-02T08:19:41;99989.84;;;20.56;64.36
19112;BME280;9688;51.906;8.376;2023-07-02T08:22:31;99999.50;;;20.68;63.97
19112;BME280;9688;51.906;8.376;2023-07-02T08:25:17;99992.72;;;20.74;63.25
19112;BME280;9688;51.906;8.376;2023-07-02T08:28:08;100003.31;;;20.65;63.59
19112;BME280;9688;51.906;8.376;2023-07-02T08:30:54;99999.22;;;20.81;63.35
19112;BME280;9688;51.906;8.376;2023-07-02T08:33:42;100009.84;;;21.02;61.79
19112;BME280;9688;51.906;8.376;2023-07-02T08:36:27;100004.47;;;21.11;61.16
19112;BME280;9688;51.906;8.376;2023-07-02T08:39:14;100014.06;;;21.33;60.27
19112;BME280;9688;51.906;8.376;2023-07-02T08:41:59;100019.16;;;21.36;59.91
19112;BME280;9688;51.906;8.376;2023-07-02T08:44:46;100017.09;;;21.40;59.64
19112;BME280;9688;51.906;8.376;2023-07-02T08:47:33;100018.63;;;21.43;59.07
19112;BME280;9688;51.906;8.376;2023-07-02T08:50:20;100023.97;;;21.52;59.08
19112;BME280;9688;51.906;8.376;2023-07-02T08:53:06;100028.84;;;21.86;58.41
19112;BME280;9688;51.906;8.376;2023-07-02T08:55:52;100015.84;;;22.29;57.58
19112;BME280;9688;51.906;8.376;2023-07-02T08:58:40;100020.66;;;22.53;56.48
19112;BME280;9688;51.906;8.376;2023-07-02T09:01:26;100024.88;;;22.83;55.42
19112;BME280;9688;51.906;8.376;2023-07-02T09:04:16;100034.44;;;22.95;55.02
19112;BME280;9688;51.906;8.376;2023-07-02T09:07:05;100016.66;;;23.20;53.97
19112;BME280;9688;51.906;8.376;2023-07-02T09:09:53;100032.59;;;23.13;53.70
19112;BME280;9688;51.906;8.376;2023-07-02T09:12:38;100032.84;;;23.02;52.67
19112;BME280;9688;51.906;8.376;2023-07-02T09:15:24;100033.03;;;22.91;51.98
19112;BME280;9688;51.906;8.376;2023-07-02T09:18:18;100034.19;;;22.88;50.48
19112;BME280;9688;51.906;8.376;2023-07-02T09:21:03;100032.22;;;22.63;50.43
19112;BME280;9688;51.906;8.376;2023-07-02T09:23:51;100036.28;;;22.49;50.18
19112;BME280;9688;51.906;8.376;2023-07-02T09:26:37;100041.88;;;22.38;50.24
19112;BME280;9688;51.906;8.376;2023-07-02T09:29:24;100046.63;;;22.26;50.39
19112;BME280;9688;51.906;8.376;2023-07-02T09:32:11;100044.38;;;22.12;50.82
19112;BME280;9688;51.906;8.376;2023-07-02T09:34:59;100040.31;;;21.98;50.74
19112;BME280;9688;51.906;8.376;2023-07-02T09:37:45;100043.03;;;21.88;50.60
19112;BME280;9688;51.906;8.376;2023-07-02T09:40:35;100042.25;;;22.05;50.63
19112;BME280;9688;51.906;8.376;2023-07-02T09:43:24;100043.22;;;22.24;50.43
19112;BME280;9688;51.906;8.376;2023-07-02T09:46:10;100047.47;;;22.54;49.76
19112;BME280;9688;51.906;8.376;2023-07-02T09:48:58;100041.03;;;22.65;48.80
19112;BME280;9688;51.906;8.376;2023-07-02T09:51:46;100045.19;;;22.77;48.32
19112;BME280;9688;51.906;8.376;2023-07-02T09:54:32;100041.66;;;22.77;47.74
19112;BME280;9688;51.906;8.376;2023-07-02T09:57:20;100049.25;;;22.63;47.84
19112;BME280;9688;51.906;8.376;2023-07-02T10:00:07;100057.13;;;22.47;47.72
19112;BME280;9688;51.906;8.376;2023-07-02T10:02:55;100056.34;;;22.37;47.69
19112;BME280;9688;51.906;8.376;2023-07-02T10:05:42;100061.44;;;22.40;48.04
19112;BME280;9688;51.906;8.376;2023-07-02T10:08:28;100066.34;;;22.44;48.05
19112;BME280;9688;51.906;8.376;2023-07-02T10:11:14;100071.06;;;22.42;48.05
19112;BME280;9688;51.906;8.376;2023-07-02T10:14:02;100049.41;;;22.34;47.72
19112;BME280;9688;51.906;8.376;2023-07-02T10:16:49;100054.28;;;22.21;47.71
19112;BME280;9688;51.906;8.376;2023-07-02T10:19:35;100071.72;;;22.07;47.66
19112;BME280;9688;51.906;8.376;2023-07-02T10:22:22;100068.31;;;22.15;47.83
19112;BME280;9688;51.906;8.376;2023-07-02T10:25:08;100074.31;;;22.36;47.52
19112;BME280;9688;51.906;8.376;2023-07-02T10:27:54;100072.31;;;22.48;47.50
19112;BME280;9688;51.906;8.376;2023-07-02T10:30:43;100067.03;;;22.56;46.99
19112;BME280;9688;51.906;8.376;2023-07-02T10:33:29;100075.84;;;22.48;47.13
19112;BME280;9688;51.906;8.376;2023-07-02T10:36:18;100059.59;;;22.40;47.32
19112;BME280;9688;51.906;8.376;2023-07-02T10:39:06;100071.63;;;22.36;47.32
19112;BME280;9688;51.906;8.376;2023-07-02T10:41:53;100073.78;;;22.33;47.16
19112;BME280;9688;51.906;8.376;2023-07-02T10:44:50;100074.50;;;22.35;47.41
19112;BME280;9688;51.906;8.376;2023-07-02T10:47:41;100070.97;;;22.34;47.41
19112;BME280;9688;51.906;8.376;2023-07-02T10:50:28;100071.38;;;22.39;47.31
19112;BME280;9688;51.906;8.376;2023-07-02T10:53:16;100064.63;;;22.53;47.47
19112;BME280;9688;51.906;8.376;2023-07-02T10:56:03;100074.50;;;22.62;47.54
19112;BME280;9688;51.906;8.376;2023-07-02T10:58:49;100068.41;;;22.60;47.27
19112;BME280;9688;51.906;8.376;2023-07-02T11:01:36;100072.22;;;22.40;47.44
19112;BME280;9688;51.906;8.376;2023-07-02T11:04:23;100064.03;;;22.22;48.10
19112;BME280;9688;51.906;8.376;2023-07-02T11:07:10;100060.19;;;22.34;48.15
19112;BME280;9688;51.906;8.376;2023-07-02T11:09:57;100071.09;;;22.60;47.98
19112;BME280;9688;51.906;8.376;2023-07-02T11:12:43;100071.53;;;22.83;47.62
19112;BME280;9688;51.906;8.376;2023-07-02T11:15:35;100062.28;;;22.86;47.71
19112;BME280;9688;51.906;8.376;2023-07-02T11:18:21;100074.38;;;22.82;48.15
19112;BME280;9688;51.906;8.376;2023-07-02T11:21:13;100076.25;;;22.54;49.47
19112;BME280;9688;51.906;8.376;2023-07-02T11:24:02;100083.38;;;22.45;49.05
19112;BME280;9688;51.906;8.376;2023-07-02T11:26:48;100081.75;;;22.62;48.70
19112;BME280;9688;51.906;8.376;2023-07-02T11:29:35;100075.94;;;22.84;48.45
19112;BME280;9688;51.906;8.376;2023-07-02T11:32:22;100082.50;;;23.00;48.06
19112;BME280;9688;51.906;8.376;2023-07-02T11:35:10;100077.91;;;23.10;48.00
19112;BME280;9688;51.906;8.376;2023-07-02T11:37:59;100080.38;;;23.21;48.14
19112;BME280;9688;51.906;8.376;2023-07-02T11:40:46;100079.16;;;23.15;48.23
19112;BME280;9688;51.906;8.376;2023-07-02T11:43:32;100096.88;;;23.00;48.66
19112;BME280;9688;51.906;8.376;2023-07-02T11:46:21;100072.00;;;22.79;48.63
19112;BME280;9688;51.906;8.376;2023-07-02T11:49:06;100069.72;;;22.56;49.01
19112;BME280;9688;51.906;8.376;2023-07-02T11:51:53;100087.78;;;22.36;49.22
19112;BME280;9688;51.906;8.376;2023-07-02T11:54:43;100086.00;;;22.27;48.83
19112;BME280;9688;51.906;8.376;2023-07-02T11:57:30;100092.81;;;22.21;48.92
19112;BME280;9688;51.906;8.376;2023-07-02T12:00:16;100084.06;;;22.10;49.06
19112;BME280;9688;51.906;8.376;2023-07-02T12:03:05;100089.00;;;22.14;49.05
19112;BME280;9688;51.906;8.376;2023-07-02T12:05:50;100082.47;;;22.26;48.59
19112;BME280;9688;51.906;8.376;2023-07-02T12:08:36;100078.13;;;22.43;48.51
19112;BME280;9688;51.906;8.376;2023-07-02T12:11:27;100081.06;;;22.50;48.64
19112;BME280;9688;51.906;8.376;2023-07-02T12:14:15;100084.16;;;22.55;49.08
19112;BME280;9688;51.906;8.376;2023-07-02T12:17:01;100086.47;;;22.50;49.46
19112;BME280;9688;51.906;8.376;2023-07-02T12:19:51;100095.13;;;22.44;49.46
19112;BME280;9688;51.906;8.376;2023-07-02T12:22:37;100092.56;;;22.52;48.57
19112;BME280;9688;51.906;8.376;2023-07-02T12:25:24;100087.44;;;22.59;47.46
19112;BME280;9688;51.906;8.376;2023-07-02T12:28:26;100084.78;;;22.77;47.46
19112;BME280;9688;51.906;8.376;2023-07-02T12:31:12;100086.75;;;23.02;46.95
19112;BME280;9688;51.906;8.376;2023-07-02T12:33:58;100082.06;;;23.22;45.92
19112;BME280;9688;51.906;8.376;2023-07-02T12:36:44;100092.34;;;23.36;45.39
19112;BME280;9688;51.906;8.376;2023-07-02T12:39:31;100080.59;;;23.46;44.77
19112;BME280;9688;51.906;8.376;2023-07-02T12:42:16;100091.19;;;23.39;44.28
19112;BME280;9688;51.906;8.376;2023-07-02T12:45:06;100098.91;;;23.34;43.76
19112;BME280;9688;51.906;8.376;2023-07-02T12:47:52;100100.03;;;23.31;44.28
19112;BME280;9688;51.906;8.376;2023-07-02T12:50:40;100097.34;;;23.31;44.47
19112;BME280;9688;51.906;8.376;2023-07-02T12:53:26;100094.09;;;23.46;44.17
19112;BME280;9688;51.906;8.376;2023-07-02T12:56:14;100090.06;;;23.50;44.49
19112;BME280;9688;51.906;8.376;2023-07-02T12:59:02;100100.97;;;23.40;44.50
19112;BME280;9688;51.906;8.376;2023-07-02T13:01:49;100102.19;;;23.46;44.24
19112;BME280;9688;51.906;8.376;2023-07-02T13:04:34;100096.69;;;23.55;44.22
19112;BME280;9688;51.906;8.376;2023-07-02T13:07:20;100104.25;;;23.70;43.57
19112;BME280;9688;51.906;8.376;2023-07-02T13:10:08;100107.66;;;23.54;43.96
19112;BME280;9688;51.906;8.376;2023-07-02T13:12:54;100114.06;;;23.53;43.41
19112;BME280;9688;51.906;8.376;2023-07-02T13:15:41;100088.78;;;23.54;43.02
19112;BME280;9688;51.906;8.376;2023-07-02T13:18:31;100106.56;;;23.65;42.71
19112;BME280;9688;51.906;8.376;2023-07-02T13:21:16;100101.28;;;23.73;42.89
19112;BME280;9688;51.906;8.376;2023-07-02T13:24:05;100106.81;;;23.53;42.72
19112;BME280;9688;51.906;8.376;2023-07-02T13:26:53;100110.81;;;23.49;43.70
19112;BME280;9688;51.906;8.376;2023-07-02T13:29:39;100115.50;;;23.47;43.31
19112;BME280;9688;51.906;8.376;2023-07-02T13:32:25;100117.06;;;23.50;44.00
19112;BME280;9688;51.906;8.376;2023-07-02T13:35:13;100112.59;;;23.58;43.05
19112;BME280;9688;51.906;8.376;2023-07-02T13:37:59;100113.97;;;23.63;42.70
19112;BME280;9688;51.906;8.376;2023-07-02T13:40:45;100122.53;;;23.58;42.69
19112;BME280;9688;51.906;8.376;2023-07-02T13:43:31;100120.84;;;23.57;42.42
19112;BME280;9688;51.906;8.376;2023-07-02T13:46:17;100123.47;;;23.67;42.30
19112;BME280;9688;51.906;8.376;2023-07-02T13:49:03;100127.13;;;23.75;42.04
19112;BME280;9688;51.906;8.376;2023-07-02T13:51:51;100119.59;;;23.87;42.28
19112;BME280;9688;51.906;8.376;2023-07-02T13:54:37;100111.09;;;24.00;42.20
19112;BME280;9688;51.906;8.376;2023-07-02T13:57:24;100124.94;;;23.79;42.43
19112;BME280;9688;51.906;8.376;2023-07-02T14:00:14;100123.09;;;23.62;42.76
19112;BME280;9688;51.906;8.376;2023-07-02T14:03:00;100119.09;;;23.48;43.65
19112;BME280;9688;51.906;8.376;2023-07-02T14:05:47;100123.59;;;23.47;43.58
19112;BME280;9688;51.906;8.376;2023-07-02T14:08:35;100122.22;;;23.61;43.63
19112;BME280;9688;51.906;8.376;2023-07-02T14:11:22;100123.31;;;23.68;43.93
19112;BME280;9688;51.906;8.376;2023-07-02T14:14:09;100116.22;;;23.67;43.71
19112;BME280;9688;51.906;8.376;2023-07-02T14:16:56;100133.41;;;23.66;44.13
19112;BME280;9688;51.906;8.376;2023-07-02T14:19:43;100124.63;;;23.82;43.76
19112;BME280;9688;51.906;8.376;2023-07-02T14:22:33;100121.72;;;23.75;44.21
19112;BME280;9688;51.906;8.376;2023-07-02T14:25:20;100130.88;;;23.65;44.75
19112;BME280;9688;51.906;8.376;2023-07-02T14:28:06;100124.31;;;23.85;44.82
19112;BME280;9688;51.906;8.376;2023-07-02T14:30:56;100124.47;;;24.10;44.25
19112;BME280;9688;51.906;8.376;2023-07-02T14:33:45;100121.72;;;24.27;43.89
19112;BME280;9688;51.906;8.376;2023-07-02T14:36:31;100118.75;;;24.13;44.82
19112;BME280;9688;51.906;8.376;2023-07-02T14:39:17;100112.72;;;23.93;45.09
19112;BME280;9688;51.906;8.376;2023-07-02T14:42:04;100120.69;;;23.76;45.77
19112;BME280;9688;51.906;8.376;2023-07-02T14:44:51;100118.75;;;23.87;45.74
19112;BME280;9688;51.906;8.376;2023-07-02T14:47:37;100119.53;;;23.79;45.92